sensor_id;sensor_type;location;lat;lon;timestamp;P1;durP1;ratioP1;P2;durP2;ratioP2
75386;SDS011;63966;47.914;22.266;2022-12-05T00:01:50;51.55;;;22.55;;
75386;SDS011;63966;47.914;22.266;2022-12-05T00:04:54;55.55;;;23.73;;
75386;SDS011;63966;47.914;22.266;2022-12-05T00:07:57;46.17;;;21.93;;
75386;SDS011;63966;47.914;22.266;2022-12-05T00:11:01;37.85;;;18.98;;
75386;SDS011;63966;47.914;22.266;2022-12-05T00:14:05;39.88;;;19.75;;
75386;SDS011;63966;47.914;22.266;2022-12-05T00:17:10;47.95;;;23.48;;
75386;SDS011;63966;47.914;22.266;2022-12-05T00:20:14;52.40;;;24.30;;
75386;SDS011;63966;47.914;22.266;2022-12-05T00:23:18;48.47;;;23.43;;
75386;SDS011;63966;47.914;22.266;2022-12-05T00:26:21;36.10;;;19.30;;
75386;SDS011;63966;47.914;22.266;2022-12-05T00:29:25;39.50;;;20.48;;
75386;SDS011;63966;47.914;22.266;2022-12-05T00:32:28;42.53;;;20.65;;
75386;SDS011;63966;47.914;22.266;2022-12-05T00:35:33;43.03;;;21.27;;
75386;SDS011;63966;47.914;22.266;2022-12-05T00:38:36;44.77;;;21.00;;
75386;SDS011;63966;47.914;22.266;2022-12-05T00:41:40;40.53;;;18.67;;
75386;SDS011;63966;47.914;22.266;2022-12-05T00:44:44;38.47;;;18.35;;
75386;SDS011;63966;47.914;22.266;2022-12-05T00:47:50;40.10;;;19.58;;
75386;SDS011;63966;47.914;22.266;2022-12-05T00:54:30;47.70;;;22.83;;
75386;SDS011;63966;47.914;22.266;2022-12-05T00:57:33;69.03;;;30.30;;
75386;SDS011;63966;47.914;22.266;2022-12-05T01:00:37;57.40;;;26.50;;
75386;SDS011;63966;47.914;22.266;2022-12-05T01:03:41;42.80;;;21.73;;
75386;SDS011;63966;47.914;22.266;2022-12-05T01:06:45;50.00;;;24.33;;
75386;SDS011;63966;47.914;22.266;2022-12-05T01:09:49;52.00;;;22.93;;
75386;SDS011;63966;47.914;22.266;2022-12-05T01:12:52;46.25;;;23.10;;
75386;SDS011;63966;47.914;22.266;2022-12-05T01:15:56;45.20;;;21.38;;
75386;SDS011;63966;47.914;22.266;2022-12-05T01:19:00;41.40;;;19.55;;
75386;SDS011;63966;47.914;22.266;2022-12-05T01:22:06;50.70;;;21.95;;
75386;SDS011;63966;47.914;22.266;2022-12-05T01:25:09;40.40;;;20.10;;
75386;SDS011;63966;47.914;22.266;2022-12-05T01:28:13;44.70;;;20.50;;
75386;SDS011;63966;47.914;22.266;2022-12-05T01:31:24;31.45;;;15.70;;
75386;SDS011;63966;47.914;22.266;2022-12-05T01:34:29;39.15;;;19.48;;
75386;SDS011;63966;47.914;22.266;2022-12-05T01:37:33;51.17;;;22.48;;
75386;SDS011;63966;47.914;22.266;2022-12-05T01:40:36;63.77;;;24.93;;
75386;SDS011;63966;47.914;22.266;2022-12-05T01:47:09;36.30;;;16.75;;
75386;SDS011;63966;47.914;22.266;2022-12-05T01:50:12;36.13;;;18.23;;
75386;SDS011;63966;47.914;22.266;2022-12-05T01:53:16;42.58;;;20.15;;
75386;SDS011;63966;47.914;22.266;2022-12-05T01:56:20;41.03;;;19.53;;
75386;SDS011;63966;47.914;22.266;2022-12-05T01:59:24;40.30;;;20.17;;
75386;SDS011;63966;47.914;22.266;2022-12-05T02:02:31;46.25;;;21.77;;
75386;SDS011;63966;47.914;22.266;2022-12-05T02:05:35;36.40;;;17.35;;
75386;SDS011;63966;47.914;22.266;2022-12-05T02:08:39;36.03;;;17.70;;
75386;SDS011;63966;47.914;22.266;2022-12-05T02:11:54;34.47;;;16.73;;
75386;SDS011;63966;47.914;22.266;2022-12-05T02:31:39;31.70;;;14.87;;
75386;SDS011;63966;47.914;22.266;2022-12-05T02:42:20;27.27;;;14.77;;
75386;SDS011;63966;47.914;22.266;2022-12-05T02:45:09;30.03;;;15.10;;
75386;SDS011;63966;47.914;22.266;2022-12-05T02:48:16;33.78;;;17.05;;
75386;SDS011;63966;47.914;22.266;2022-12-05T02:51:22;32.03;;;17.05;;
75386;SDS011;63966;47.914;22.266;2022-12-05T02:54:30;27.38;;;15.15;;
75386;SDS011;63966;47.914;22.266;2022-12-05T02:57:38;30.60;;;16.08;;
75386;SDS011;63966;47.914;22.266;2022-12-05T03:00:46;31.17;;;16.07;;
75386;SDS011;63966;47.914;22.266;2022-12-05T03:03:52;33.77;;;17.03;;
75386;SDS011;63966;47.914;22.266;2022-12-05T03:06:58;31.10;;;16.58;;
75386;SDS011;63966;47.914;22.266;2022-12-05T03:10:08;30.25;;;15.77;;
75386;SDS011;63966;47.914;22.266;2022-12-05T03:13:17;28.17;;;15.73;;
75386;SDS011;63966;47.914;22.266;2022-12-05T03:19:53;27.77;;;13.70;;
75386;SDS011;63966;47.914;22.266;2022-12-05T03:23:48;24.85;;;13.32;;
75386;SDS011;63966;47.914;22.266;2022-12-05T03:26:42;24.20;;;12.43;;
75386;SDS011;63966;47.914;22.266;2022-12-05T03:30:03;23.33;;;13.50;;
75386;SDS011;63966;47.914;22.266;2022-12-05T03:33:14;25.03;;;13.00;;
75386;SDS011;63966;47.914;22.266;2022-12-05T03:36:25;27.60;;;13.27;;
75386;SDS011;63966;47.914;22.266;2022-12-05T03:39:37;22.85;;;12.52;;
75386;SDS011;63966;47.914;22.266;2022-12-05T03:42:48;27.90;;;12.02;;
75386;SDS011;63966;47.914;22.266;2022-12-05T03:52:21;21.50;;;11.77;;
75386;SDS011;63966;47.914;22.266;2022-12-05T03:56:10;25.17;;;12.68;;
75386;SDS011;63966;47.914;22.266;2022-12-05T04:02:49;22.45;;;12.25;;
75386;SDS011;63966;47.914;22.266;2022-12-05T04:06:49;22.03;;;13.33;;
75386;SDS011;63966;47.914;22.266;2022-12-05T04:09:40;25.63;;;12.43;;
75386;SDS011;63966;47.914;22.266;2022-12-05T04:12:46;26.30;;;13.18;;
75386;SDS011;63966;47.914;22.266;2022-12-05T04:15:55;24.85;;;12.80;;
75386;SDS011;63966;47.914;22.266;2022-12-05T04:19:29;25.25;;;13.00;;
75386;SDS011;63966;47.914;22.266;2022-12-05T04:23:08;23.50;;;12.43;;
75386;SDS011;63966;47.914;22.266;2022-12-05T04:26:14;28.47;;;13.50;;
75386;SDS011;63966;47.914;22.266;2022-12-05T04:29:26;30.75;;;13.55;;
75386;SDS011;63966;47.914;22.266;2022-12-05T04:32:42;26.02;;;13.10;;
75386;SDS011;63966;47.914;22.266;2022-12-05T04:36:15;24.92;;;12.73;;
75386;SDS011;63966;47.914;22.266;2022-12-05T04:39:35;24.10;;;12.27;;
75386;SDS011;63966;47.914;22.266;2022-12-05T04:42:46;24.03;;;12.47;;
75386;SDS011;63966;47.914;22.266;2022-12-05T04:45:52;24.58;;;13.13;;
75386;SDS011;63966;47.914;22.266;2022-12-05T04:48:59;25.42;;;12.98;;
75386;SDS011;63966;47.914;22.266;2022-12-05T04:52:08;24.98;;;13.25;;
75386;SDS011;63966;47.914;22.266;2022-12-05T04:55:17;29.53;;;15.63;;
75386;SDS011;63966;47.914;22.266;2022-12-05T04:58:27;28.30;;;14.17;;
75386;SDS011;63966;47.914;22.266;2022-12-05T05:01:39;55.03;;;21.17;;
75386;SDS011;63966;47.914;22.266;2022-12-05T05:04:50;57.90;;;26.63;;
75386;SDS011;63966;47.914;22.266;2022-12-05T05:07:57;40.15;;;20.95;;
75386;SDS011;63966;47.914;22.266;2022-12-05T05:11:11;40.47;;;20.87;;
75386;SDS011;63966;47.914;22.266;2022-12-05T05:14:21;36.13;;;18.43;;
75386;SDS011;63966;47.914;22.266;2022-12-05T05:17:24;38.95;;;19.88;;
75386;SDS011;63966;47.914;22.266;2022-12-05T05:20:28;45.58;;;21.65;;
75386;SDS011;63966;47.914;22.266;2022-12-05T05:23:31;41.85;;;20.38;;
75386;SDS011;63966;47.914;22.266;2022-12-05T05:26:36;44.43;;;21.67;;
75386;SDS011;63966;47.914;22.266;2022-12-05T05:29:41;44.07;;;21.43;;
75386;SDS011;63966;47.914;22.266;2022-12-05T05:32:45;45.08;;;22.30;;
75386;SDS011;63966;47.914;22.266;2022-12-05T05:35:49;50.25;;;23.77;;
75386;SDS011;63966;47.914;22.266;2022-12-05T05:38:56;47.38;;;22.35;;
75386;SDS011;63966;47.914;22.266;2022-12-05T05:42:01;37.60;;;20.30;;
75386;SDS011;63966;47.914;22.266;2022-12-05T05:45:05;55.17;;;24.97;;
75386;SDS011;63966;47.914;22.266;2022-12-05T05:48:09;56.38;;;27.60;;
75386;SDS011;63966;47.914;22.266;2022-12-05T05:51:13;51.92;;;24.63;;
75386;SDS011;63966;47.914;22.266;2022-12-05T05:54:18;55.47;;;24.08;;
75386;SDS011;63966;47.914;22.266;2022-12-05T05:57:21;43.03;;;20.30;;
75386;SDS011;63966;47.914;22.266;2022-12-05T06:00:24;40.20;;;19.53;;
75386;SDS011;63966;47.914;22.266;2022-12-05T06:03:28;62.28;;;27.60;;
75386;SDS011;63966;47.914;22.266;2022-12-05T06:06:32;62.40;;;25.88;;
75386;SDS011;63966;47.914;22.266;2022-12-05T06:09:35;52.63;;;24.23;;
75386;SDS011;63966;47.914;22.266;2022-12-05T06:12:39;53.40;;;23.67;;
75386;SDS011;63966;47.914;22.266;2022-12-05T06:15:43;38.63;;;19.20;;
75386;SDS011;63966;47.914;22.266;2022-12-05T06:18:46;42.53;;;19.83;;
75386;SDS011;63966;47.914;22.266;2022-12-05T06:21:51;31.52;;;16.30;;
75386;SDS011;63966;47.914;22.266;2022-12-05T06:24:54;24.65;;;12.50;;
75386;SDS011;63966;47.914;22.266;2022-12-05T06:27:58;20.23;;;11.03;;
75386;SDS011;63966;47.914;22.266;2022-12-05T06:31:05;24.63;;;12.33;;
75386;SDS011;63966;47.914;22.266;2022-12-05T06:34:16;24.73;;;12.45;;
75386;SDS011;63966;47.914;22.266;2022-12-05T06:37:19;25.05;;;13.25;;
75386;SDS011;63966;47.914;22.266;2022-12-05T06:40:23;36.72;;;17.77;;
75386;SDS011;63966;47.914;22.266;2022-12-05T06:43:26;34.10;;;16.23;;
75386;SDS011;63966;47.914;22.266;2022-12-05T06:46:30;32.03;;;14.73;;
75386;SDS011;63966;47.914;22.266;2022-12-05T06:49:33;29.55;;;14.55;;
75386;SDS011;63966;47.914;22.266;2022-12-05T06:52:39;26.48;;;13.32;;
75386;SDS011;63966;47.914;22.266;2022-12-05T06:55:42;31.75;;;17.13;;
75386;SDS011;63966;47.914;22.266;2022-12-05T06:58:47;36.40;;;17.60;;
75386;SDS011;63966;47.914;22.266;2022-12-05T07:01:51;36.27;;;17.13;;
75386;SDS011;63966;47.914;22.266;2022-12-05T07:04:55;28.52;;;14.77;;
75386;SDS011;63966;47.914;22.266;2022-12-05T07:07:58;25.10;;;13.93;;
75386;SDS011;63966;47.914;22.266;2022-12-05T07:11:02;30.25;;;14.25;;
75386;SDS011;63966;47.914;22.266;2022-12-05T07:14:06;27.93;;;14.23;;
75386;SDS011;63966;47.914;22.266;2022-12-05T07:17:25;25.57;;;12.87;;
75386;SDS011;63966;47.914;22.266;2022-12-05T07:20:29;25.17;;;12.52;;
75386;SDS011;63966;47.914;22.266;2022-12-05T07:23:53;29.92;;;15.45;;
75386;SDS011;63966;47.914;22.266;2022-12-05T07:26:56;27.23;;;15.27;;
75386;SDS011;63966;47.914;22.266;2022-12-05T07:30:00;22.70;;;12.23;;
75386;SDS011;63966;47.914;22.266;2022-12-05T07:33:04;21.23;;;11.53;;
75386;SDS011;63966;47.914;22.266;2022-12-05T07:36:09;25.27;;;11.93;;
75386;SDS011;63966;47.914;22.266;2022-12-05T07:39:14;18.60;;;10.75;;
75386;SDS011;63966;47.914;22.266;2022-12-05T07:42:19;19.33;;;10.82;;
75386;SDS011;63966;47.914;22.266;2022-12-05T07:45:23;23.47;;;12.97;;
75386;SDS011;63966;47.914;22.266;2022-12-05T07:48:26;23.90;;;12.70;;
75386;SDS011;63966;47.914;22.266;2022-12-05T07:51:30;23.73;;;12.00;;
75386;SDS011;63966;47.914;22.266;2022-12-05T07:54:34;23.05;;;13.13;;
75386;SDS011;63966;47.914;22.266;2022-12-05T07:57:38;35.13;;;17.45;;
75386;SDS011;63966;47.914;22.266;2022-12-05T08:00:41;33.00;;;17.70;;
75386;SDS011;63966;47.914;22.266;2022-12-05T08:03:45;35.53;;;17.70;;
75386;SDS011;63966;47.914;22.266;2022-12-05T08:06:49;38.63;;;18.80;;
75386;SDS011;63966;47.914;22.266;2022-12-05T08:09:52;30.85;;;15.60;;
75386;SDS011;63966;47.914;22.266;2022-12-05T08:12:56;21.27;;;11.93;;
75386;SDS011;63966;47.914;22.266;2022-12-05T08:16:00;20.90;;;12.37;;
75386;SDS011;63966;47.914;22.266;2022-12-05T08:19:06;20.40;;;11.63;;
75386;SDS011;63966;47.914;22.266;2022-12-05T08:22:12;21.23;;;11.73;;
75386;SDS011;63966;47.914;22.266;2022-12-05T08:25:15;21.90;;;11.70;;
75386;SDS011;63966;47.914;22.266;2022-12-05T08:28:19;22.42;;;11.75;;
75386;SDS011;63966;47.914;22.266;2022-12-05T08:31:22;22.20;;;11.43;;
75386;SDS011;63966;47.914;22.266;2022-12-05T08:34:28;22.60;;;11.90;;
75386;SDS011;63966;47.914;22.266;2022-12-05T08:37:31;27.42;;;12.43;;
75386;SDS011;63966;47.914;22.266;2022-12-05T08:40:36;20.65;;;11.20;;
75386;SDS011;63966;47.914;22.266;2022-12-05T08:43:40;21.98;;;11.52;;
75386;SDS011;63966;47.914;22.266;2022-12-05T08:46:45;22.77;;;11.73;;
75386;SDS011;63966;47.914;22.266;2022-12-05T08:49:51;22.17;;;12.47;;
75386;SDS011;63966;47.914;22.266;2022-12-05T08:52:54;21.73;;;11.73;;
75386;SDS011;63966;47.914;22.266;2022-12-05T08:56:01;18.77;;;10.98;;
75386;SDS011;63966;47.914;22.266;2022-12-05T08:59:06;19.52;;;11.23;;
75386;SDS011;63966;47.914;22.266;2022-12-05T09:02:10;22.87;;;12.60;;
75386;SDS011;63966;47.914;22.266;2022-12-05T09:05:14;19.77;;;11.37;;
75386;SDS011;63966;47.914;22.266;2022-12-05T09:08:29;22.67;;;12.15;;
75386;SDS011;63966;47.914;22.266;2022-12-05T09:11:34;22.38;;;12.15;;
75386;SDS011;63966;47.914;22.266;2022-12-05T09:14:47;30.05;;;14.43;;
75386;SDS011;63966;47.914;22.266;2022-12-05T09:17:51;35.50;;;17.23;;
75386;SDS011;63966;47.914;22.266;2022-12-05T09:20:54;31.10;;;17.17;;
75386;SDS011;63966;47.914;22.266;2022-12-05T09:23:58;30.30;;;15.63;;
75386;SDS011;63966;47.914;22.266;2022-12-05T09:27:02;31.05;;;16.55;;
75386;SDS011;63966;47.914;22.266;2022-12-05T09:30:05;29.17;;;15.40;;
75386;SDS011;63966;47.914;22.266;2022-12-05T09:33:11;24.13;;;14.07;;
75386;SDS011;63966;47.914;22.266;2022-12-05T09:36:24;26.43;;;15.40;;
75386;SDS011;63966;47.914;22.266;2022-12-05T09:39:29;28.85;;;15.50;;
75386;SDS011;63966;47.914;22.266;2022-12-05T09:42:35;27.33;;;15.38;;
75386;SDS011;63966;47.914;22.266;2022-12-05T09:45:53;27.00;;;15.82;;
75386;SDS011;63966;47.914;22.266;2022-12-05T09:49:10;25.17;;;15.80;;
75386;SDS011;63966;47.914;22.266;2022-12-05T09:52:26;24.93;;;14.87;;
75386;SDS011;63966;47.914;22.266;2022-12-05T09:58:47;25.83;;;15.70;;
75386;SDS011;63966;47.914;22.266;2022-12-05T10:05:22;28.03;;;16.43;;
75386;SDS011;63966;47.914;22.266;2022-12-05T10:08:52;27.33;;;15.33;;
75386;SDS011;63966;47.914;22.266;2022-12-05T10:18:54;28.48;;;15.13;;
75386;SDS011;63966;47.914;22.266;2022-12-05T10:22:14;30.00;;;15.83;;
75386;SDS011;63966;47.914;22.266;2022-12-05T10:25:26;27.73;;;15.13;;
75386;SDS011;63966;47.914;22.266;2022-12-05T10:31:41;24.17;;;14.05;;
75386;SDS011;63966;47.914;22.266;2022-12-05T10:34:47;24.13;;;12.57;;
75386;SDS011;63966;47.914;22.266;2022-12-05T10:37:56;24.67;;;13.23;;
75386;SDS011;63966;47.914;22.266;2022-12-05T10:41:06;22.07;;;12.53;;
75386;SDS011;63966;47.914;22.266;2022-12-05T10:44:12;21.05;;;13.18;;
75386;SDS011;63966;47.914;22.266;2022-12-05T10:47:16;24.27;;;13.32;;
75386;SDS011;63966;47.914;22.266;2022-12-05T10:50:31;23.10;;;12.73;;
75386;SDS011;63966;47.914;22.266;2022-12-05T10:53:39;22.43;;;12.80;;
75386;SDS011;63966;47.914;22.266;2022-12-05T10:56:48;23.50;;;12.90;;
75386;SDS011;63966;47.914;22.266;2022-12-05T10:59:53;21.20;;;12.05;;
75386;SDS011;63966;47.914;22.266;2022-12-05T11:03:00;22.15;;;12.32;;
75386;SDS011;63966;47.914;22.266;2022-12-05T11:06:16;19.73;;;11.68;;
75386;SDS011;63966;47.914;22.266;2022-12-05T11:09:46;24.43;;;13.83;;
75386;SDS011;63966;47.914;22.266;2022-12-05T11:12:49;24.57;;;14.33;;
75386;SDS011;63966;47.914;22.266;2022-12-05T11:15:53;25.65;;;13.85;;
75386;SDS011;63966;47.914;22.266;2022-12-05T11:19:09;26.00;;;15.32;;
75386;SDS011;63966;47.914;22.266;2022-12-05T11:22:29;25.55;;;14.52;;
75386;SDS011;63966;47.914;22.266;2022-12-05T11:25:35;22.90;;;12.93;;
75386;SDS011;63966;47.914;22.266;2022-12-05T11:28:39;20.87;;;11.97;;
75386;SDS011;63966;47.914;22.266;2022-12-05T11:31:42;21.10;;;12.15;;
75386;SDS011;63966;47.914;22.266;2022-12-05T11:38:15;21.00;;;12.02;;
75386;SDS011;63966;47.914;22.266;2022-12-05T11:48:14;21.60;;;12.05;;
75386;SDS011;63966;47.914;22.266;2022-12-05T11:55:14;19.67;;;11.95;;
75386;SDS011;63966;47.914;22.266;2022-12-05T12:05:17;21.33;;;10.90;;
75386;SDS011;63966;47.914;22.266;2022-12-05T12:08:25;20.48;;;11.55;;
75386;SDS011;63966;47.914;22.266;2022-12-05T12:11:47;20.38;;;11.40;;
75386;SDS011;63966;47.914;22.266;2022-12-05T12:18:40;17.53;;;9.93;;
75386;SDS011;63966;47.914;22.266;2022-12-05T12:21:55;16.15;;;9.80;;
75386;SDS011;63966;47.914;22.266;2022-12-05T12:31:39;15.10;;;8.53;;
75386;SDS011;63966;47.914;22.266;2022-12-05T12:51:01;19.47;;;9.23;;
75386;SDS011;63966;47.914;22.266;2022-12-05T13:00:48;20.42;;;10.80;;
75386;SDS011;63966;47.914;22.266;2022-12-05T13:04:14;21.33;;;11.17;;
75386;SDS011;63966;47.914;22.266;2022-12-05T13:07:30;19.33;;;10.27;;
75386;SDS011;63966;47.914;22.266;2022-12-05T13:10:48;18.60;;;10.20;;
75386;SDS011;63966;47.914;22.266;2022-12-05T13:13:58;21.20;;;11.32;;
75386;SDS011;63966;47.914;22.266;2022-12-05T13:17:09;23.20;;;12.40;;
75386;SDS011;63966;47.914;22.266;2022-12-05T13:20:26;27.47;;;13.20;;
75386;SDS011;63966;47.914;22.266;2022-12-05T13:23:44;26.43;;;13.57;;
75386;SDS011;63966;47.914;22.266;2022-12-05T13:26:53;20.77;;;11.95;;
75386;SDS011;63966;47.914;22.266;2022-12-05T13:30:16;24.98;;;13.90;;
75386;SDS011;63966;47.914;22.266;2022-12-05T13:33:25;26.60;;;12.85;;
75386;SDS011;63966;47.914;22.266;2022-12-05T13:36:38;22.20;;;12.47;;
75386;SDS011;63966;47.914;22.266;2022-12-05T13:40:01;22.60;;;12.00;;
75386;SDS011;63966;47.914;22.266;2022-12-05T13:43:24;27.85;;;12.63;;
75386;SDS011;63966;47.914;22.266;2022-12-05T13:46:30;23.35;;;12.73;;
75386;SDS011;63966;47.914;22.266;2022-12-05T13:49:42;21.77;;;12.60;;
75386;SDS011;63966;47.914;22.266;2022-12-05T13:52:51;33.90;;;16.57;;
75386;SDS011;63966;47.914;22.266;2022-12-05T13:56:02;25.53;;;14.63;;
75386;SDS011;63966;47.914;22.266;2022-12-05T13:59:06;28.60;;;13.48;;
75386;SDS011;63966;47.914;22.266;2022-12-05T14:05:47;32.95;;;15.63;;
75386;SDS011;63966;47.914;22.266;2022-12-05T14:08:54;32.07;;;14.43;;
75386;SDS011;63966;47.914;22.266;2022-12-05T14:16:35;30.40;;;15.27;;
75386;SDS011;63966;47.914;22.266;2022-12-05T14:18:53;34.38;;;17.75;;
75386;SDS011;63966;47.914;22.266;2022-12-05T14:22:14;42.63;;;19.85;;
75386;SDS011;63966;47.914;22.266;2022-12-05T14:25:40;35.43;;;16.60;;
75386;SDS011;63966;47.914;22.266;2022-12-05T14:35:31;30.73;;;14.93;;
75386;SDS011;63966;47.914;22.266;2022-12-05T14:38:47;26.15;;;14.38;;
75386;SDS011;63966;47.914;22.266;2022-12-05T14:41:55;29.23;;;17.27;;
75386;SDS011;63966;47.914;22.266;2022-12-05T14:45:01;29.63;;;15.33;;
75386;SDS011;63966;47.914;22.266;2022-12-05T14:48:33;21.15;;;12.45;;
75386;SDS011;63966;47.914;22.266;2022-12-05T14:51:54;21.40;;;11.88;;
75386;SDS011;63966;47.914;22.266;2022-12-05T14:55:00;21.35;;;11.93;;
75386;SDS011;63966;47.914;22.266;2022-12-05T14:58:15;25.23;;;12.87;;
75386;SDS011;63966;47.914;22.266;2022-12-05T15:01:46;27.10;;;13.90;;
75386;SDS011;63966;47.914;22.266;2022-12-05T15:04:54;27.83;;;12.82;;
75386;SDS011;63966;47.914;22.266;2022-12-05T15:08:05;26.50;;;12.82;;
75386;SDS011;63966;47.914;22.266;2022-12-05T15:11:16;23.00;;;12.68;;
75386;SDS011;63966;47.914;22.266;2022-12-05T15:14:33;22.80;;;12.37;;
75386;SDS011;63966;47.914;22.266;2022-12-05T15:17:56;23.40;;;13.20;;
75386;SDS011;63966;47.914;22.266;2022-12-05T15:21:21;25.10;;;13.77;;
75386;SDS011;63966;47.914;22.266;2022-12-05T15:24:35;24.40;;;13.20;;
75386;SDS011;63966;47.914;22.266;2022-12-05T15:27:39;26.63;;;14.18;;
75386;SDS011;63966;47.914;22.266;2022-12-05T15:30:55;26.83;;;14.03;;
75386;SDS011;63966;47.914;22.266;2022-12-05T15:34:00;24.63;;;14.40;;
75386;SDS011;63966;47.914;22.266;2022-12-05T15:37:37;28.67;;;15.00;;
75386;SDS011;63966;47.914;22.266;2022-12-05T15:40:47;29.13;;;16.55;;
75386;SDS011;63966;47.914;22.266;2022-12-05T15:43:54;25.98;;;15.38;;
75386;SDS011;63966;47.914;22.266;2022-12-05T15:46:58;25.97;;;13.17;;
75386;SDS011;63966;47.914;22.266;2022-12-05T15:50:02;23.47;;;12.63;;
75386;SDS011;63966;47.914;22.266;2022-12-05T15:53:13;22.98;;;12.38;;
75386;SDS011;63966;47.914;22.266;2022-12-05T15:56:28;20.38;;;11.18;;
75386;SDS011;63966;47.914;22.266;2022-12-05T15:59:38;18.88;;;11.00;;
75386;SDS011;63966;47.914;22.266;2022-12-05T16:02:52;23.43;;;12.10;;
75386;SDS011;63966;47.914;22.266;2022-12-05T16:06:06;21.83;;;12.43;;
75386;SDS011;63966;47.914;22.266;2022-12-05T16:09:27;21.35;;;11.38;;
75386;SDS011;63966;47.914;22.266;2022-12-05T16:12:37;23.42;;;12.15;;
75386;SDS011;63966;47.914;22.266;2022-12-05T16:15:44;21.10;;;11.30;;
75386;SDS011;63966;47.914;22.266;2022-12-05T16:18:55;20.73;;;11.23;;
75386;SDS011;63966;47.914;22.266;2022-12-05T16:22:01;21.13;;;11.13;;
75386;SDS011;63966;47.914;22.266;2022-12-05T16:25:11;20.80;;;10.85;;
75386;SDS011;63966;47.914;22.266;2022-12-05T16:28:18;19.90;;;10.98;;
75386;SDS011;63966;47.914;22.266;2022-12-05T16:31:23;20.15;;;10.50;;
75386;SDS011;63966;47.914;22.266;2022-12-05T16:34:28;19.23;;;9.93;;
75386;SDS011;63966;47.914;22.266;2022-12-05T16:37:34;17.73;;;9.67;;
75386;SDS011;63966;47.914;22.266;2022-12-05T16:41:00;17.20;;;10.18;;
75386;SDS011;63966;47.914;22.266;2022-12-05T16:44:05;17.45;;;9.30;;
75386;SDS011;63966;47.914;22.266;2022-12-05T16:50:43;19.73;;;9.77;;
75386;SDS011;63966;47.914;22.266;2022-12-05T16:56:51;17.65;;;10.52;;
75386;SDS011;63966;47.914;22.266;2022-12-05T16:59:55;20.55;;;11.45;;
75386;SDS011;63966;47.914;22.266;2022-12-05T17:02:59;19.08;;;11.05;;
75386;SDS011;63966;47.914;22.266;2022-12-05T17:06:22;21.70;;;11.33;;
75386;SDS011;63966;47.914;22.266;2022-12-05T17:09:27;18.73;;;10.30;;
75386;SDS011;63966;47.914;22.266;2022-12-05T17:12:31;23.33;;;10.90;;
75386;SDS011;63966;47.914;22.266;2022-12-05T17:15:35;21.92;;;10.95;;
75386;SDS011;63966;47.914;22.266;2022-12-05T17:18:39;17.95;;;10.80;;
75386;SDS011;63966;47.914;22.266;2022-12-05T17:21:43;19.37;;;10.97;;
75386;SDS011;63966;47.914;22.266;2022-12-05T17:24:47;17.40;;;9.90;;
75386;SDS011;63966;47.914;22.266;2022-12-05T17:27:51;19.73;;;10.45;;
75386;SDS011;63966;47.914;22.266;2022-12-05T17:30:55;19.95;;;10.52;;
75386;SDS011;63966;47.914;22.266;2022-12-05T17:33:59;18.17;;;10.18;;
75386;SDS011;63966;47.914;22.266;2022-12-05T17:37:03;19.27;;;10.10;;
75386;SDS011;63966;47.914;22.266;2022-12-05T17:40:06;20.10;;;10.50;;
75386;SDS011;63966;47.914;22.266;2022-12-05T17:43:11;18.15;;;10.00;;
75386;SDS011;63966;47.914;22.266;2022-12-05T17:46:21;17.30;;;9.15;;
75386;SDS011;63966;47.914;22.266;2022-12-05T17:49:25;19.27;;;9.98;;
75386;SDS011;63966;47.914;22.266;2022-12-05T17:52:28;15.77;;;8.50;;
75386;SDS011;63966;47.914;22.266;2022-12-05T17:55:32;18.02;;;9.05;;
75386;SDS011;63966;47.914;22.266;2022-12-05T17:58:35;18.77;;;9.07;;
75386;SDS011;63966;47.914;22.266;2022-12-05T18:01:39;16.20;;;8.68;;
75386;SDS011;63966;47.914;22.266;2022-12-05T18:04:43;15.48;;;8.93;;
75386;SDS011;63966;47.914;22.266;2022-12-05T18:07:47;16.03;;;9.30;;
75386;SDS011;63966;47.914;22.266;2022-12-05T18:10:51;18.10;;;9.17;;
75386;SDS011;63966;47.914;22.266;2022-12-05T18:13:57;16.02;;;9.00;;
75386;SDS011;63966;47.914;22.266;2022-12-05T18:17:02;16.83;;;9.10;;
75386;SDS011;63966;47.914;22.266;2022-12-05T18:20:06;17.48;;;9.27;;
75386;SDS011;63966;47.914;22.266;2022-12-05T18:23:14;17.03;;;8.93;;
75386;SDS011;63966;47.914;22.266;2022-12-05T18:26:18;17.40;;;9.43;;
75386;SDS011;63966;47.914;22.266;2022-12-05T18:29:22;15.43;;;8.43;;
75386;SDS011;63966;47.914;22.266;2022-12-05T18:32:26;15.48;;;8.80;;
75386;SDS011;63966;47.914;22.266;2022-12-05T18:35:29;15.77;;;8.90;;
75386;SDS011;63966;47.914;22.266;2022-12-05T18:38:42;17.43;;;9.23;;
75386;SDS011;63966;47.914;22.266;2022-12-05T18:41:56;16.33;;;8.27;;
75386;SDS011;63966;47.914;22.266;2022-12-05T18:45:00;18.45;;;9.23;;
75386;SDS011;63966;47.914;22.266;2022-12-05T18:48:04;16.35;;;8.90;;
75386;SDS011;63966;47.914;22.266;2022-12-05T18:51:28;15.02;;;8.52;;
75386;SDS011;63966;47.914;22.266;2022-12-05T18:54:32;17.43;;;8.70;;
75386;SDS011;63966;47.914;22.266;2022-12-05T18:57:35;16.93;;;8.53;;
75386;SDS011;63966;47.914;22.266;2022-12-05T19:00:39;15.55;;;8.52;;
75386;SDS011;63966;47.914;22.266;2022-12-05T19:03:43;16.42;;;8.80;;
75386;SDS011;63966;47.914;22.266;2022-12-05T19:06:50;15.63;;;8.80;;
75386;SDS011;63966;47.914;22.266;2022-12-05T19:09:55;17.07;;;8.73;;
75386;SDS011;63966;47.914;22.266;2022-12-05T19:12:59;15.23;;;8.43;;
75386;SDS011;63966;47.914;22.266;2022-12-05T19:16:04;16.27;;;8.15;;
75386;SDS011;63966;47.914;22.266;2022-12-05T19:19:11;15.43;;;8.43;;
75386;SDS011;63966;47.914;22.266;2022-12-05T19:22:16;16.00;;;8.63;;
75386;SDS011;63966;47.914;22.266;2022-12-05T19:25:19;15.33;;;8.17;;
75386;SDS011;63966;47.914;22.266;2022-12-05T19:28:23;16.00;;;8.70;;
75386;SDS011;63966;47.914;22.266;2022-12-05T19:31:27;17.17;;;9.25;;
75386;SDS011;63966;47.914;22.266;2022-12-05T19:34:32;16.15;;;8.00;;
75386;SDS011;63966;47.914;22.266;2022-12-05T19:37:36;15.48;;;7.65;;
75386;SDS011;63966;47.914;22.266;2022-12-05T19:40:42;15.20;;;8.47;;
75386;SDS011;63966;47.914;22.266;2022-12-05T19:43:46;13.37;;;7.40;;
75386;SDS011;63966;47.914;22.266;2022-12-05T19:46:51;15.48;;;8.20;;
75386;SDS011;63966;47.914;22.266;2022-12-05T19:49:56;14.68;;;8.27;;
75386;SDS011;63966;47.914;22.266;2022-12-05T19:53:00;13.88;;;8.05;;
75386;SDS011;63966;47.914;22.266;2022-12-05T19:59:11;16.27;;;8.57;;
75386;SDS011;63966;47.914;22.266;2022-12-05T20:02:17;14.98;;;7.75;;
75386;SDS011;63966;47.914;22.266;2022-12-05T20:05:22;15.75;;;8.63;;
75386;SDS011;63966;47.914;22.266;2022-12-05T20:08:26;18.40;;;7.85;;
75386;SDS011;63966;47.914;22.266;2022-12-05T20:11:31;16.43;;;8.17;;
75386;SDS011;63966;47.914;22.266;2022-12-05T20:14:34;16.43;;;8.23;;
75386;SDS011;63966;47.914;22.266;2022-12-05T20:17:38;13.65;;;7.63;;
75386;SDS011;63966;47.914;22.266;2022-12-05T20:20:42;17.58;;;8.82;;
75386;SDS011;63966;47.914;22.266;2022-12-05T20:23:46;18.00;;;8.38;;
75386;SDS011;63966;47.914;22.266;2022-12-05T20:26:50;14.80;;;8.17;;